»·PEaware :: N301PW KPSP-KSAN

N301PW :: KPSP-KSAN

FLIGHT INFORMATION

Flight Status: Arrived
Operator: Privately registered:
United States
More flights under this callsign
Pilot: Stacy K. (11621)
Aircraft: DEHAVILLAND DASH 8 200
(DH8B)
More flights by this aircraft type
Origin: KPSP Palm Springs Intl
United States
Destination: KSAN San Diego Intl-Lindbergh
United States
More flights between these airports :: More routes between these airports
Route: TRM V514 WARNE
File this flight plan on PilotEdge
Remarks: PBN / D2 DOF / 180420 REG / N3101PK SEL / CDEH PER / B
Altitude:
(Current/Filed)
12,500ft
Speed:
(Current/Filed)
265kts
Departed: 20-Apr-18 03:36 PM
Arrived: 20-Apr-18 04:07 PM
Distance/Time
Traveled:
74nm/0:31
Distance/Time
To Go:
Arrived

Flight Plot

Page will automatically refresh every two minutes.

Flight plan parsing failed; only flown route is shown


Map Options




Map Legend


Flown Route
Filed Route
Departure Airport
Arrival Airport
Navaid (VOR, NDB)
Fix

Horizontal Profiles

Position Reports

Time Latitude Longitude Heading Altitude Ground
Speed
20-Apr-18 15:12 33.823432 -116.507770 214 483ft 0kts
20-Apr-18 15:13 33.823432 -116.507770 214 483ft 0kts
20-Apr-18 15:14 33.823432 -116.507770 214 483ft 0kts
20-Apr-18 15:15 33.823432 -116.507770 214 483ft 0kts
20-Apr-18 15:16 33.823432 -116.507770 214 483ft 0kts
20-Apr-18 15:17 33.823432 -116.507770 214 483ft 0kts
20-Apr-18 15:18 33.823432 -116.507770 214 483ft 0kts
20-Apr-18 15:19 33.823432 -116.507770 214 483ft 0kts
20-Apr-18 15:20 33.823432 -116.507770 214 483ft 0kts
20-Apr-18 15:21 33.823432 -116.507770 214 483ft 0kts
20-Apr-18 15:22 33.823432 -116.507770 214 483ft 0kts
20-Apr-18 15:23 33.823428 -116.507773 214 483ft 0kts
20-Apr-18 15:24 33.823428 -116.507773 214 483ft 0kts
20-Apr-18 15:25 33.823428 -116.507773 214 483ft 0kts
20-Apr-18 15:26 33.823428 -116.507773 214 483ft 0kts
20-Apr-18 15:27 33.823428 -116.507773 214 483ft 0kts
20-Apr-18 15:28 33.823428 -116.507773 214 483ft 0kts
20-Apr-18 15:29 33.823428 -116.507773 214 483ft 0kts
20-Apr-18 15:30 33.823288 -116.507219 357 483ft 5kts
20-Apr-18 15:31 33.822693 -116.504805 78 483ft 13kts
20-Apr-18 15:32 33.821094 -116.501823 144 483ft 17kts
20-Apr-18 15:33 33.817527 -116.498668 138 483ft 13kts
20-Apr-18 15:34 33.817634 -116.497816 52 483ft 0kts
20-Apr-18 15:35 33.824752 -116.503381 317 488ft 130kts
20-Apr-18 15:36 33.859029 -116.532180 321 2281ft 163kts
20-Apr-18 15:37 33.896625 -116.567174 321 4137ft 181kts
20-Apr-18 15:38 33.942148 -116.582543 36 5962ft 202kts
20-Apr-18 15:39 33.933665 -116.518011 126 7816ft 225kts
20-Apr-18 15:40 33.892165 -116.459933 129 9641ft 234kts
20-Apr-18 15:41 33.855839 -116.395073 113 11453ft 232kts
20-Apr-18 15:42 33.825080 -116.323836 111 12506ft 263kts
20-Apr-18 15:43 33.778336 -116.248683 142 12495ft 298kts
20-Apr-18 15:44 33.704418 -116.201265 155 12462ft 306kts
20-Apr-18 15:45 33.624735 -116.178662 199 12465ft 296kts
20-Apr-18 15:46 33.554312 -116.225157 220 12412ft 288kts
20-Apr-18 15:47 33.490566 -116.280900 221 12310ft 290kts
20-Apr-18 15:48 33.440409 -116.324803 221 12328ft 289kts
20-Apr-18 15:49 33.375851 -116.381542 224 12348ft 287kts
20-Apr-18 15:50 33.318516 -116.446925 231 12355ft 285kts
20-Apr-18 15:51 33.264564 -116.514877 232 12401ft 280kts
20-Apr-18 15:52 33.211418 -116.582742 232 12430ft 280kts
20-Apr-18 15:53 33.158290 -116.650579 232 12444ft 280kts
20-Apr-18 15:54 33.093772 -116.706572 209 11448ft 300kts
20-Apr-18 15:55 33.018024 -116.748207 206 9706ft 294kts
20-Apr-18 15:56 32.946007 -116.786866 205 7962ft 275kts
20-Apr-18 15:57 32.877825 -116.823407 205 6214ft 262kts
20-Apr-18 15:58 32.812708 -116.858280 205 4469ft 252kts
20-Apr-18 15:59 32.754225 -116.889525 205 3952ft 207kts
20-Apr-18 16:00 32.696501 -116.920474 205 3975ft 245kts
20-Apr-18 16:01 32.660569 -116.980631 287 3616ft 249kts
20-Apr-18 16:02 32.692880 -117.037068 299 3244ft 184kts
20-Apr-18 16:03 32.708582 -117.089801 288 1804ft 169kts
20-Apr-18 16:04 32.721638 -117.143943 287 707ft 165kts
20-Apr-18 16:05 32.732786 -117.186704 289 21ft 60kts
20-Apr-18 16:06 32.732761 -117.190134 124 21ft 10kts
20-Apr-18 16:07 32.731751 -117.191019 284 21ft 0kts
20-Apr-18 16:08 32.731751 -117.191019 284 21ft 0kts

Navigation Log

Ident Type
Flight plan parsing failed, navigation log unavailable